Hakuryoumaru No.15 — JD2439 — position and weather

sailwx.info

Track history (hours):
 
Tides and Currents Weather Stations Pressure Air Temp Water Temp Dewpoint Dewpoint Depression Visibility Wind Speed Wind Dir Waves Ship Positions

Hakuryoumaru No.15

Last reported at 2016-Jul-21 07:10 UTC. Time now 2016-Jul-24 03:00 UTC.
Position N 34°08' E 135°03'.

Length 80 m; draft 5.4 m.

Type: Tanker. MMSI: 431000243.

Date/timePositionNaut miles runAvg speedWind from/ knotsBaromVisibWave heightAir tempDewpointWater temp
2016-Jul-21 07:10N 34°08' E 135°03'4 0.7
2016-Jul-21 01:32N 34°07' E 135°08'7 6.7
2016-Jul-21 00:33N 34°12' E 135°02'2311.3
2016-Jul-20 22:30N 34°31' E 135°18'5 0.1
2016-Jul-19 07:32N 34°31' E 135°24'25 8.2
2016-Jul-19 04:29N 34°09' E 135°09'0 0.0
2016-Jul-19 03:29N 34°09' E 135°09'2 0.4
2016-Jul-18 23:33N 34°09' E 135°11'2 1.9
2016-Jul-18 22:31N 34°09' E 135°09'0 0.0
2016-Jul-18 21:31N 34°09' E 135°09'0 0.0
2016-Jul-18 20:22N 34°09' E 135°09'0 0.0
2016-Jul-18 19:31N 34°09' E 135°09'0 0.1
2016-Jul-18 18:28N 34°09' E 135°09'0 0.0
2016-Jul-18 17:31N 34°09' E 135°09'0 0.0
2016-Jul-18 16:31N 34°09' E 135°09'0 0.0
2016-Jul-18 15:31N 34°09' E 135°09'0 0.0
2016-Jul-18 14:31N 34°09' E 135°09'1 1.4
2016-Jul-18 13:33N 34°09' E 135°08'  
Track history (hours):
 
Tides and Currents Weather Stations Pressure Air Temp Water Temp Dewpoint Dewpoint Depression Visibility Wind Speed Wind Dir Waves Ship Positions

Hakuryoumaru No.15

Last reported at 2016-Jul-21 07:10 UTC. Time now 2016-Jul-24 03:00 UTC.
Position N 34°08' E 135°03'.

Length 80 m; draft 5.4 m.

Type: Tanker. MMSI: 431000243.

Date/timePositionNaut miles runAvg speedWind from/ knotsBaromVisibWave heightAir tempDewpointWater temp
2016-Jul-21 07:10N 34°08' E 135°03'4 0.7
2016-Jul-21 01:32N 34°07' E 135°08'7 6.7
2016-Jul-21 00:33N 34°12' E 135°02'2311.3
2016-Jul-20 22:30N 34°31' E 135°18'5 0.1
2016-Jul-19 07:32N 34°31' E 135°24'25 8.2
2016-Jul-19 04:29N 34°09' E 135°09'0 0.0
2016-Jul-19 03:29N 34°09' E 135°09'2 0.4
2016-Jul-18 23:33N 34°09' E 135°11'2 1.9
2016-Jul-18 22:31N 34°09' E 135°09'0 0.0
2016-Jul-18 21:31N 34°09' E 135°09'0 0.0
2016-Jul-18 20:22N 34°09' E 135°09'0 0.0
2016-Jul-18 19:31N 34°09' E 135°09'0 0.1
2016-Jul-18 18:28N 34°09' E 135°09'0 0.0
2016-Jul-18 17:31N 34°09' E 135°09'0 0.0
2016-Jul-18 16:31N 34°09' E 135°09'0 0.0
2016-Jul-18 15:31N 34°09' E 135°09'0 0.0
2016-Jul-18 14:31N 34°09' E 135°09'1 1.4
2016-Jul-18 13:33N 34°09' E 135°08'  

Dump ship's entire track history